Time;durP1;ratioP1;P1;durP2;ratioP2;P2;SDS_P1;SDS_P2;PMS_P1;PMS_P2;Temp;Humidity;BMP_temperature;BMP_pressure;BME280_temperature;BME280_humidity;BME280_pressure;Samples;Min_cycle;Max_cycle;Signal;HPM_P1;HPM_P2
2022/06/07 00:01:07;;;;;;;;;1.00;1.00;;;;;19.10;52.65;101250.66;4980599;28;45235;-81
2022/06/07 00:03:33;;;;;;;;;2.00;1.00;;;;;19.07;52.58;101248.09;4963433;28;45291;-82
2022/06/07 00:05:59;;;;;;;;;2.00;2.00;;;;;19.07;52.47;101248.94;4963054;28;46534;-82
2022/06/07 00:08:24;;;;;;;;;3.00;3.00;;;;;19.05;52.57;101248.13;4980723;28;45495;-82
2022/06/07 00:10:50;;;;;;;;;4.50;3.00;;;;;19.00;52.85;101250.03;4963135;28;45471;-82
2022/06/07 00:13:16;;;;;;;;;1.50;1.50;;;;;18.95;52.85;101246.63;4980865;28;45362;-82
2022/06/07 00:15:43;;;;;;;;;1.00;1.00;;;;;18.91;53.11;101237.88;4980562;28;45412;-82
2022/06/07 00:18:10;;;;;;;;;2.00;2.00;;;;;18.90;53.13;101236.13;4962960;28;47279;-83
2022/06/07 00:20:38;;;;;;;;;2.33;2.33;;;;;18.91;53.81;101239.66;4959121;28;45340;-82
2022/06/07 00:23:06;;;;;;;;;1.00;1.00;;;;;18.89;53.99;101244.16;4967426;28;45342;-82
2022/06/07 00:25:32;;;;;;;;;1.33;1.33;;;;;18.83;53.83;101231.88;4977131;28;46396;-82
2022/06/07 00:27:59;;;;;;;;;2.00;2.00;;;;;18.77;54.34;101226.75;4962716;28;47524;-82
2022/06/07 00:30:24;;;;;;;;;2.00;2.00;;;;;18.76;54.54;101227.66;4962895;28;45256;-82
2022/06/07 00:32:50;;;;;;;;;2.00;2.00;;;;;18.75;54.98;101230.38;4962994;28;45469;-82
2022/06/07 00:35:16;;;;;;;;;3.00;1.33;;;;;18.72;55.23;101225.97;4980709;28;45483;-82
2022/06/07 00:37:42;;;;;;;;;2.00;2.00;;;;;18.72;55.35;101220.66;4980290;28;45174;-82
2022/06/07 00:40:08;;;;;;;;;1.00;1.00;;;;;18.67;55.43;101212.78;4962992;28;45540;-82
2022/06/07 00:42:34;;;;;;;;;1.00;1.00;;;;;18.64;55.03;101210.19;4962763;28;45192;-82
2022/06/07 00:45:00;;;;;;;;;1.33;1.33;;;;;18.64;55.79;101210.19;4980561;28;45396;-82
2022/06/07 00:47:30;;;;;;;;;2.00;2.00;;;;;18.63;55.67;101202.22;4962489;28;47756;-82
2022/06/07 00:50:04;;;;;;;;;2.00;2.00;;;;;18.61;55.90;101198.75;4979848;28;45237;-82
2022/06/07 00:52:31;;;;;;;;;2.00;2.00;;;;;18.57;56.08;101192.63;4962689;28;45259;-82
2022/06/07 00:54:57;;;;;;;;;2.00;2.00;;;;;18.53;56.34;101188.31;4954814;28;45310;-81
2022/06/07 00:57:24;;;;;;;;;1.00;1.00;;;;;18.51;56.47;101188.34;4973257;28;48089;-81
2022/06/07 00:59:51;;;;;;;;;1.33;0.67;;;;;18.49;56.75;101178.66;4962709;28;45433;-81
2022/06/07 01:02:17;;;;;;;;;1.67;1.67;;;;;18.48;56.58;101187.56;4980234;28;45438;-82
2022/06/07 01:04:43;;;;;;;;;3.00;3.00;;;;;18.48;57.09;101188.44;4962679;28;45557;-82
2022/06/07 01:12:36;;;;;;;;;1.00;1.00;;;;;18.44;57.35;101178.81;4967250;28;45371;-82
2022/06/07 01:15:03;;;;;;;;;2.00;2.00;;;;;18.43;57.21;101184.16;4962401;28;45667;-81
2022/06/07 01:17:29;;;;;;;;;2.33;2.00;;;;;18.44;57.50;101188.56;4962277;28;48373;-82
2022/06/07 01:19:54;;;;;;;;;1.67;1.00;;;;;18.43;57.90;101182.38;4948842;28;45385;-82
2022/06/07 01:22:21;;;;;;;;;1.00;1.00;;;;;18.41;57.88;101186.00;4962374;28;45249;-82
2022/06/07 01:24:47;;;;;;;;;2.00;2.00;;;;;18.39;57.42;101170.06;4979777;28;45542;-81
2022/06/07 01:27:13;;;;;;;;;2.00;2.00;;;;;18.43;57.67;101170.84;4972499;28;46398;-81
2022/06/07 01:29:39;;;;;;;;;0.67;0.67;;;;;18.40;57.72;101162.94;4973938;28;45517;-81
2022/06/07 01:32:06;;;;;;;;;2.00;2.00;;;;;18.41;57.89;101170.00;4980836;28;45400;-81
2022/06/07 01:34:33;;;;;;;;;2.33;1.00;;;;;18.40;57.93;101165.59;4982915;28;45560;-82
2022/06/07 01:37:00;;;;;;;;;2.00;2.00;;;;;18.39;57.92;101163.84;4965509;28;46761;-82
2022/06/07 01:42:12;;;;;;;;;1.67;1.67;;;;;18.39;58.57;101164.72;4974729;28;45251;-82
2022/06/07 01:44:41;;;;;;;;;3.00;2.00;;;;;18.39;58.25;101170.06;4960434;28;45659;-81
2022/06/07 01:47:10;;;;;;;;;2.33;2.33;;;;;18.38;58.12;101162.09;4971230;28;47014;-81
2022/06/07 01:49:35;;;;;;;;;1.00;1.00;;;;;18.39;58.59;101170.06;4965123;28;45333;-82
2022/06/07 01:52:02;;;;;;;;;0.00;0.00;;;;;18.38;58.46;101165.63;4965406;28;45477;-82
2022/06/07 01:54:27;;;;;;;;;2.00;2.00;;;;;18.36;58.12;101154.13;4965230;28;45479;-82
2022/06/07 01:56:52;;;;;;;;;2.00;2.00;;;;;18.36;58.54;101170.13;4965179;28;47372;-82
2022/06/07 01:59:19;;;;;;;;;1.00;1.00;;;;;18.36;58.30;101158.59;4965021;28;45258;-81
2022/06/07 02:01:47;;;;;;;;;1.00;1.00;;;;;18.37;58.41;101163.91;4982986;28;45484;-82
2022/06/07 02:04:12;;;;;;;;;2.00;2.00;;;;;18.35;58.22;101160.38;4982524;28;45472;-82
2022/06/07 02:06:38;;;;;;;;;1.33;1.33;;;;;18.35;58.81;101156.84;4964861;28;47580;-82
2022/06/07 02:09:06;;;;;;;;;2.00;2.00;;;;;18.38;58.74;101154.09;4982655;28;45287;-81
2022/06/07 02:11:33;;;;;;;;;2.67;2.67;;;;;18.38;58.76;101157.63;4965129;28;45279;-82
2022/06/07 02:13:58;;;;;;;;;2.67;2.00;;;;;18.39;59.08;101148.75;4964591;28;45233;-81
2022/06/07 02:16:24;;;;;;;;;3.00;2.00;;;;;18.41;58.60;101149.53;4964937;28;45473;-82
2022/06/07 02:18:51;;;;;;;;;2.33;2.33;;;;;18.39;59.20;101145.16;4964705;28;45439;-82
2022/06/07 02:21:19;;;;;;;;;2.67;2.67;;;;;18.38;58.97;101141.63;4953657;28;45453;-82
2022/06/07 02:23:45;;;;;;;;;2.00;2.00;;;;;18.39;59.03;101138.06;4960585;28;45291;-82
2022/06/07 02:26:21;;;;;;;;;1.33;1.33;;;;;18.39;59.27;101134.50;4965237;28;45290;-82
2022/06/07 02:28:52;;;;;;;;;2.67;2.00;;;;;18.39;59.00;101130.06;4970810;28;45227;-82
2022/06/07 02:31:18;;;;;;;;;1.67;1.00;;;;;18.40;59.10;101130.94;4964829;28;45445;-82
2022/06/07 02:33:45;;;;;;;;;3.00;3.00;;;;;18.36;59.23;101122.13;4964842;28;45472;-82
2022/06/07 02:36:12;;;;;;;;;1.00;1.00;;;;;18.38;59.04;101127.44;4964714;28;48064;-82
2022/06/07 02:38:39;;;;;;;;;2.33;2.33;;;;;18.41;59.83;101130.88;4982500;28;45172;-81
2022/06/07 02:41:09;;;;;;;;;2.00;2.00;;;;;18.38;59.11;101117.66;4982304;28;45437;-81
2022/06/07 02:43:34;;;;;;;;;1.00;1.00;;;;;18.39;59.54;101124.75;4964246;28;45809;-82
2022/06/07 02:46:00;;;;;;;;;2.67;2.67;;;;;18.43;59.44;101115.72;4964195;28;48298;-83
2022/06/07 02:48:25;;;;;;;;;1.33;1.33;;;;;18.45;59.76;101110.34;4965093;28;45287;-81
2022/06/07 02:50:52;;;;;;;;;2.33;2.33;;;;;18.50;59.75;101106.63;4982784;28;45230;-81
2022/06/07 02:53:19;;;;;;;;;2.00;2.00;;;;;18.53;59.03;101105.66;4965311;28;45913;-81
2022/06/07 02:55:44;;;;;;;;;4.00;2.67;;;;;18.54;59.35;101102.06;4964614;28;48239;-81
2022/06/07 02:58:10;;;;;;;;;2.33;1.00;;;;;18.57;59.55;101112.63;4982137;28;45373;-81
2022/06/07 03:00:35;;;;;;;;;6.00;3.00;;;;;18.57;59.19;101109.09;4964554;28;45309;-81
2022/06/07 03:03:01;;;;;;;;;3.33;3.33;;;;;18.57;59.56;101109.94;4964492;28;45439;-80
2022/06/07 03:05:26;;;;;;;;;2.00;2.00;;;;;18.55;59.17;101100.25;4981935;28;46248;-81
2022/06/07 03:07:52;;;;;;;;;2.00;1.00;;;;;18.56;59.74;101099.34;4982119;28;45429;-81
2022/06/07 03:10:18;;;;;;;;;2.67;2.67;;;;;18.55;59.69;101090.50;4982142;28;45404;-81
2022/06/07 03:12:44;;;;;;;;;1.67;1.67;;;;;18.58;59.42;101100.16;4964318;28;45385;-81
2022/06/07 03:15:10;;;;;;;;;1.00;1.00;;;;;18.58;59.60;101094.81;4963992;28;47854;-81
2022/06/07 03:17:39;;;;;;;;;1.33;1.33;;;;;18.55;59.77;101095.81;4964136;28;45436;-81
2022/06/07 03:20:09;;;;;;;;;5.00;3.00;;;;;18.52;59.27;101094.13;4949736;28;45469;-81
2022/06/07 03:22:36;;;;;;;;;1.33;1.33;;;;;18.50;59.58;101103.09;4964394;28;45472;-81
2022/06/07 03:25:05;;;;;;;;;1.00;1.00;;;;;18.47;59.84;101092.50;4978311;28;46281;-81
2022/06/07 03:27:48;;;;;;;;;2.00;2.00;;;;;18.43;59.86;101101.53;4963636;28;45500;-82
2022/06/07 03:30:23;;;;;;;;;3.00;3.00;;;;;18.42;59.96;101097.97;4981558;28;45314;-81
2022/06/07 03:32:48;;;;;;;;;2.67;2.67;;;;;18.44;60.09;101104.16;4981406;28;45274;-81
2022/06/07 03:35:17;;;;;;;;;3.25;3.25;;;;;18.46;59.87;101096.09;4980883;28;45838;-81
2022/06/07 03:37:43;;;;;;;;;2.67;1.33;;;;;18.45;60.33;101092.56;4950841;28;45362;-81
2022/06/07 03:40:12;;;;;;;;;1.33;1.33;;;;;18.47;60.38;101097.81;4963974;28;45380;-81
2022/06/07 03:42:38;;;;;;;;;3.00;3.00;;;;;18.47;60.10;101098.72;4963632;28;45328;-81
2022/06/07 03:45:04;;;;;;;;;0.00;0.00;;;;;18.44;60.50;101087.25;4981336;28;45855;-81
2022/06/07 03:47:30;;;;;;;;;3.00;3.00;;;;;18.40;60.08;101091.81;4980887;28;45446;-81
2022/06/07 03:49:55;;;;;;;;;2.00;2.00;;;;;18.39;60.35;101100.75;4963683;28;45465;-81
2022/06/07 03:52:21;;;;;;;;;5.00;5.00;;;;;18.36;60.79;101095.47;4963659;28;45497;-81
2022/06/07 03:54:48;;;;;;;;;3.00;2.33;;;;;18.33;60.72;101098.25;4972480;28;48361;-81
2022/06/07 03:57:14;;;;;;;;;3.00;3.00;;;;;18.32;61.23;101096.50;4960080;28;45720;-81
2022/06/07 03:59:39;;;;;;;;;2.33;2.33;;;;;18.34;61.26;101104.47;4960352;28;45551;-81
2022/06/07 04:02:06;;;;;;;;;3.00;3.00;;;;;18.31;61.41;101108.09;4961397;28;45244;-81
2022/06/07 04:04:33;;;;;;;;;2.00;2.00;;;;;18.29;61.66;101102.81;4961553;28;45759;-81
2022/06/07 04:09:42;;;;;;;;;6.00;4.33;;;;;18.24;61.44;101096.75;4961530;28;45299;-81
2022/06/07 04:12:10;;;;;;;;;2.00;2.00;;;;;18.25;61.78;101102.94;4964353;28;45466;-81
2022/06/07 04:14:37;;;;;;;;;5.00;4.00;;;;;18.25;61.75;101094.94;4980727;28;46305;-81
2022/06/07 04:17:04;;;;;;;;;3.00;2.33;;;;;18.27;61.46;101099.31;4962941;28;46392;-81
2022/06/07 04:19:29;;;;;;;;;2.00;2.00;;;;;18.28;61.59;101101.06;4970387;28;45529;-81
2022/06/07 04:21:55;;;;;;;;;1.00;1.00;;;;;18.26;61.89;101104.69;4972656;28;45566;-81
2022/06/07 04:24:21;;;;;;;;;2.00;2.00;;;;;18.23;62.27;101096.78;4975124;28;45515;-81
2022/06/07 04:26:49;;;;;;;;;1.67;1.67;;;;;18.20;62.54;101100.44;4980620;28;45322;-81
2022/06/07 04:29:15;;;;;;;;;2.00;2.00;;;;;18.20;63.14;101104.88;4962922;28;45431;-81
2022/06/07 04:31:40;;;;;;;;;2.00;2.00;;;;;18.18;62.93;101104.06;4980355;28;45357;-81
2022/06/07 04:34:07;;;;;;;;;2.00;2.00;;;;;18.17;62.93;101105.81;4962718;28;47955;-81
2022/06/07 04:36:38;;;;;;;;;2.00;2.00;;;;;18.14;63.75;101089.94;4945611;28;45427;-81
2022/06/07 04:39:07;;;;;;;;;3.00;3.00;;;;;18.14;64.29;101105.06;4971352;28;45342;-81
2022/06/07 04:41:32;;;;;;;;;2.00;2.00;;;;;18.06;64.65;101105.28;4961480;28;45428;-81
2022/06/07 04:43:58;;;;;;;;;2.00;2.00;;;;;18.03;64.63;101094.72;4959214;28;47385;-81
2022/06/07 04:46:25;;;;;;;;;3.00;3.00;;;;;18.02;64.85;101095.63;4962957;28;45454;-81
2022/06/07 04:48:51;;;;;;;;;3.67;3.00;;;;;17.96;64.80;101095.78;4952451;28;45478;-81
2022/06/07 04:51:19;;;;;;;;;0.33;0.33;;;;;17.95;65.96;101100.25;4963212;28;46072;-81
2022/06/07 04:53:46;;;;;;;;;2.67;2.67;;;;;17.93;66.02;101096.75;4962721;28;47903;-81
2022/06/07 04:56:16;;;;;;;;;3.67;3.67;;;;;17.92;65.97;101096.81;4979876;28;45333;-81
2022/06/07 04:58:42;;;;;;;;;2.00;2.00;;;;;17.85;66.19;101093.44;4962643;28;45326;-81
2022/06/07 05:01:11;;;;;;;;;1.67;1.67;;;;;17.81;66.51;101094.44;4962560;28;45540;-81
2022/06/07 05:03:38;;;;;;;;;2.00;2.00;;;;;17.78;66.87;101105.16;4962586;28;48348;-81
2022/06/07 05:06:14;;;;;;;;;2.00;2.00;;;;;17.72;67.62;101105.31;4981829;28;45449;-81
2022/06/07 05:08:40;;;;;;;;;2.00;2.00;;;;;17.72;67.68;101103.53;4966192;28;45303;-81
2022/06/07 05:11:09;;;;;;;;;2.00;2.00;;;;;17.72;67.71;101098.22;4958013;28;45442;-81
2022/06/07 05:13:34;;;;;;;;;3.00;2.00;;;;;17.72;67.68;101095.56;4959147;28;47329;-81
2022/06/07 05:16:02;;;;;;;;;2.00;2.00;;;;;17.70;67.95;101094.72;4970635;28;45412;-81
2022/06/07 05:18:28;;;;;;;;;2.00;2.00;;;;;17.72;67.44;101100.88;4963952;28;45386;-82
2022/06/07 05:20:53;;;;;;;;;3.00;2.33;;;;;17.73;67.80;101099.09;4962191;28;45520;-81
2022/06/07 05:23:18;;;;;;;;;4.00;4.00;;;;;17.74;68.00;101093.69;4976695;28;48072;-82
2022/06/07 05:26:00;;;;;;;;;2.67;2.67;;;;;17.74;67.97;101099.03;4974982;28;45409;-81
2022/06/07 05:28:26;;;;;;;;;3.00;3.00;;;;;17.74;67.79;101104.34;4980680;28;45306;-81
2022/06/07 05:30:52;;;;;;;;;2.00;2.00;;;;;17.76;68.19;101101.66;4965642;28;45550;-83
2022/06/07 05:33:17;;;;;;;;;1.33;1.33;;;;;17.76;68.15;101105.19;4983387;28;46334;-82
2022/06/07 05:35:43;;;;;;;;;2.33;2.33;;;;;17.76;68.09;101102.53;4955445;28;45446;-83
2022/06/07 05:38:11;;;;;;;;;2.67;2.33;;;;;17.80;68.14;101104.25;4980772;28;44815;-82
2022/06/07 05:40:36;;;;;;;;;3.33;2.67;;;;;17.83;67.97;101098.81;4983231;28;45188;-85
2022/06/07 05:43:03;;;;;;;;;4.00;3.00;;;;;17.83;67.69;101100.63;4985706;28;45343;-84
2022/06/07 05:45:30;;;;;;;;;2.33;2.33;;;;;17.88;68.06;101116.44;4982597;28;45298;-82
2022/06/07 05:47:56;;;;;;;;;3.00;3.00;;;;;17.90;67.97;101118.16;4963591;28;45487;-82
2022/06/07 05:50:21;;;;;;;;;2.00;2.00;;;;;17.91;67.78;101113.69;4965286;28;45391;-83
2022/06/07 05:52:47;;;;;;;;;2.33;2.33;;;;;17.94;67.38;101116.31;4983133;28;45542;-84
2022/06/07 05:55:12;;;;;;;;;3.33;3.33;;;;;17.95;67.80;101110.91;4966675;28;45391;-82
2022/06/07 05:57:38;;;;;;;;;2.00;1.00;;;;;17.91;67.81;101106.59;4964913;28;45352;-81
2022/06/07 06:00:04;;;;;;;;;2.00;2.00;;;;;17.88;68.38;101122.63;4955447;28;45892;-83
2022/06/07 06:02:30;;;;;;;;;1.00;1.00;;;;;17.86;68.41;101111.19;4978078;28;47083;-83
2022/06/07 06:04:55;;;;;;;;;3.00;3.00;;;;;17.87;68.36;101115.56;4982518;28;45301;-83
2022/06/07 06:07:23;;;;;;;;;2.00;2.00;;;;;17.88;68.26;101116.44;4964459;28;45307;-85
2022/06/07 06:12:33;;;;;;;;;1.00;1.00;;;;;17.98;68.59;101123.28;4981765;28;45227;-83
2022/06/07 06:14:59;;;;;;;;;2.33;2.33;;;;;18.03;68.69;101124.88;4964913;28;45497;-83
2022/06/07 06:17:24;;;;;;;;;1.00;1.00;;;;;18.07;68.43;101126.56;4964240;28;45274;-83
2022/06/07 06:19:49;;;;;;;;;0.33;0.33;;;;;18.13;68.45;101125.50;4952040;28;45598;-84
2022/06/07 06:22:15;;;;;;;;;1.67;1.67;;;;;18.17;68.27;101127.16;4946307;28;47737;-83
2022/06/07 06:24:40;;;;;;;;;2.00;2.00;;;;;18.21;68.11;101130.63;4982353;28;45404;-84
2022/06/07 06:27:07;;;;;;;;;2.33;2.00;;;;;18.30;68.61;101130.31;4964710;28;45345;-82
2022/06/07 06:29:33;;;;;;;;;1.00;1.00;;;;;18.35;68.06;101131.06;4960352;28;45682;-82
2022/06/07 06:31:58;;;;;;;;;1.33;1.33;;;;;18.40;67.66;101144.28;4969507;28;47951;-82
2022/06/07 06:34:29;;;;;;;;;2.00;2.00;;;;;18.34;67.37;101137.34;4979272;28;45469;-82
2022/06/07 06:36:56;;;;;;;;;1.00;1.00;;;;;18.33;67.51;101134.69;4961403;28;45554;-82
2022/06/07 06:39:22;;;;;;;;;1.00;1.00;;;;;18.36;67.70;101140.81;4960972;28;45414;-83
2022/06/07 06:41:49;;;;;;;;;1.67;1.67;;;;;18.37;67.63;101155.03;4943245;28;48309;-82
2022/06/07 06:44:16;;;;;;;;;1.67;1.67;;;;;18.39;67.88;101153.16;4961137;28;45427;-82
2022/06/07 06:46:45;;;;;;;;;2.33;2.00;;;;;18.41;67.92;101152.19;4960404;28;45385;-82
2022/06/07 06:49:12;;;;;;;;;1.33;1.33;;;;;18.44;67.61;101146.81;4967233;28;45475;-82
2022/06/07 06:51:38;;;;;;;;;1.00;1.00;;;;;18.48;67.77;101152.91;4968810;28;46582;-82
2022/06/07 06:54:04;;;;;;;;;1.33;1.33;;;;;18.52;67.15;101157.22;4963904;28;45419;-82
2022/06/07 06:56:31;;;;;;;;;1.67;1.67;;;;;18.52;67.67;101150.13;4963910;28;45200;-81
2022/06/07 06:58:57;;;;;;;;;1.00;1.00;;;;;18.53;67.16;101153.66;4981426;28;45420;-81
2022/06/07 07:01:28;;;;;;;;;1.00;1.00;;;;;18.57;67.11;101157.09;4963917;28;48340;-81
2022/06/07 07:03:54;;;;;;;;;4.00;2.67;;;;;18.63;67.06;101157.78;4981474;28;45335;-81
2022/06/07 07:06:20;;;;;;;;;1.33;1.00;;;;;18.66;67.01;101157.69;4964053;28;45302;-82
2022/06/07 07:08:47;;;;;;;;;1.00;1.00;;;;;18.71;66.77;101166.44;4963973;28;45462;-82
2022/06/07 07:11:17;;;;;;;;;2.00;2.00;;;;;18.73;66.19;101161.91;4982296;28;46252;-83
2022/06/07 07:13:44;;;;;;;;;1.33;1.00;;;;;18.75;66.46;101169.03;4963037;28;45718;-81
2022/06/07 07:16:13;;;;;;;;;1.33;1.33;;;;;18.79;66.52;101170.66;4981502;28;45525;-81
2022/06/07 07:18:39;;;;;;;;;1.00;1.00;;;;;18.84;66.09;101168.72;4959815;28;45966;-81
2022/06/07 07:21:06;;;;;;;;;2.00;2.00;;;;;18.88;65.83;101163.25;4961742;28;45388;-83
2022/06/07 07:23:35;;;;;;;;;1.33;1.33;;;;;18.98;65.57;101170.97;4973063;28;45333;-82
2022/06/07 07:26:06;;;;;;;;;1.67;1.67;;;;;19.06;65.22;101171.59;4981602;28;45246;-82
2022/06/07 07:28:33;;;;;;;;;1.00;1.00;;;;;19.12;64.58;101168.75;4981083;28;45438;-82
2022/06/07 07:31:06;;;;;;;;;0.33;0.33;;;;;19.15;64.42;101157.97;4951339;28;46820;-81
2022/06/07 07:33:35;;;;;;;;;0.67;0.67;;;;;19.24;64.07;101171.00;4968169;28;45489;-80
2022/06/07 07:36:02;;;;;;;;;1.00;1.00;;;;;19.33;64.09;101167.16;4980918;28;45290;-81
2022/06/07 07:38:27;;;;;;;;;0.67;0.67;;;;;19.40;63.85;101163.34;4963317;28;45495;-80
2022/06/07 07:40:55;;;;;;;;;1.33;1.33;;;;;19.54;64.19;101163.78;4982761;28;46139;-80
2022/06/07 07:43:21;;;;;;;;;0.00;0.00;;;;;19.66;62.67;101174.94;4965510;28;45388;-80
2022/06/07 07:45:54;;;;;;;;;1.67;1.67;;;;;19.71;62.33;101170.38;4980880;28;45344;-80
2022/06/07 07:48:21;;;;;;;;;0.00;0.00;;;;;19.77;61.92;101172.81;4980900;28;45573;-81
2022/06/07 07:50:50;;;;;;;;;2.00;1.00;;;;;19.83;61.52;101168.13;4964805;28;46752;-81
2022/06/07 07:53:18;;;;;;;;;1.00;1.00;;;;;19.90;61.57;101173.25;4950980;28;45286;-80
2022/06/07 07:55:45;;;;;;;;;1.00;1.00;;;;;19.96;61.49;101176.56;4980317;28;45259;-79
2022/06/07 07:58:11;;;;;;;;;2.00;0.67;;;;;20.03;61.13;101193.28;4960985;28;45414;-80
2022/06/07 08:00:41;;;;;;;;;0.67;0.67;;;;;20.05;60.87;101178.06;4959919;28;47423;-82
2022/06/07 08:06:58;;;;;;;;;1.00;1.00;;;;;20.15;60.16;101183.91;4940307;28;45466;-87
2022/06/07 08:16:50;;;;;;;;;4.00;1.33;;;;;20.07;59.74;101170.81;4883019;29;45385;-83
2022/06/07 08:22:26;;;;;;;;;0.33;0.33;;;;;20.19;59.45;101181.09;4906309;28;45406;-85
2022/06/07 08:24:52;;;;;;;;;0.33;0.33;;;;;20.23;59.62;101166.69;4911354;28;46971;-83
2022/06/07 08:27:18;;;;;;;;;1.00;1.00;;;;;20.33;59.27;101175.22;4912504;28;45425;-83
2022/06/07 08:29:44;;;;;;;;;1.00;1.00;;;;;20.38;59.22;101170.56;4927201;28;45639;-83
2022/06/07 08:32:12;;;;;;;;;3.00;2.00;;;;;20.46;58.84;101170.28;4960995;28;45479;-85
2022/06/07 08:37:41;;;;;;;;;0.67;0.67;;;;;20.77;58.23;101163.78;4979250;28;45437;-86
2022/06/07 08:40:47;;;;;;;;;;;;;;;;;;;;;
2022/06/07 08:43:25;;;;;;;;;0.67;0.67;;;;;20.95;57.90;101157.69;4971057;28;72275;-88
2022/06/07 08:45:56;;;;;;;;;2.00;1.00;;;;;21.03;57.38;101160.06;4979733;28;45434;-88
2022/06/07 08:48:32;;;;;;;;;2.67;1.67;;;;;21.14;57.81;101171.19;4962292;28;45642;-89
2022/06/07 08:51:47;;;;;;;;;1.00;1.00;;;;;21.21;56.95;101163.81;4962051;28;45404;-88
2022/06/07 08:54:27;;;;;;;;;2.00;2.00;;;;;21.24;57.09;101159.19;4956024;28;45559;-88
2022/06/07 08:56:56;;;;;;;;;1.33;1.33;;;;;21.33;56.63;101150.78;4949677;28;46937;-86
2022/06/07 08:59:24;;;;;;;;;1.67;1.67;;;;;21.42;56.33;101151.34;4978088;28;45634;-84
2022/06/07 09:01:58;;;;;;;;;0.33;0.33;;;;;21.44;55.95;101157.50;4979857;28;45407;-86
2022/06/07 09:04:42;;;;;;;;;2.00;2.00;;;;;21.39;55.49;101159.53;4955971;28;45520;-86
2022/06/07 09:07:29;;;;;;;;;0.67;0.67;;;;;21.32;55.47;101159.72;4974367;28;45511;-88
2022/06/07 09:13:16;;;;;;;;;1.00;1.00;;;;;21.30;55.06;101160.72;4951384;28;45491;-87
2022/06/07 09:15:45;;;;;;;;;2.00;1.33;;;;;21.30;55.21;101169.66;4987961;28;45442;-85
2022/06/07 09:18:15;;;;;;;;;2.33;1.00;;;;;21.28;55.22;101168.84;4950075;28;47726;-83
2022/06/07 09:20:57;;;;;;;;;;;;;;;;;;;;;
2022/06/07 09:23:43;;;;;;;;;3.00;2.00;;;;;21.21;55.43;101170.03;4971950;28;68804;-85
2022/06/07 09:26:47;;;;;;;;;2.00;2.00;;;;;21.14;55.53;101173.88;4966845;28;45581;-83
2022/06/07 09:29:32;;;;;;;;;;;;;;;;;;;;;
2022/06/07 09:31:58;;;;;;;;;3.00;1.00;;;;;21.01;55.24;101167.28;4977945;28;73099;-82
2022/06/07 09:35:20;;;;;;;;;1.00;1.00;;;;;21.07;55.22;101175.94;4978651;28;45311;-88
2022/06/07 09:38:00;;;;;;;;;2.00;2.00;;;;;21.19;55.08;101169.19;4961317;28;46052;-84
2022/06/07 09:40:32;;;;;;;;;1.33;1.33;;;;;21.21;54.50;101175.38;4961215;28;47718;-85
2022/06/07 09:43:04;;;;;;;;;0.67;0.67;;;;;21.19;54.58;101158.50;4978855;28;45167;-85
2022/06/07 09:45:39;;;;;;;;;1.00;1.00;;;;;21.22;54.77;101171.75;4962452;28;45504;-85
2022/06/07 09:48:19;;;;;;;;;0.33;0.33;;;;;21.24;54.63;101161.00;4959479;28;45583;-89
2022/06/07 09:50:55;;;;;;;;;0.67;0.67;;;;;21.28;54.42;101152.78;4959105;28;47932;-78
2022/06/07 09:53:21;;;;;;;;;1.00;1.00;;;;;21.42;54.47;101146.88;4976325;28;45551;-82
2022/06/07 09:56:20;;;;;;;;;1.00;1.00;;;;;21.55;53.74;101157.94;4953588;28;45309;-80
2022/06/07 09:59:16;;;;;;;;;1.00;1.00;;;;;21.70;53.71;101161.75;4980981;28;45211;-83
2022/06/07 10:01:56;;;;;;;;;0.67;0.67;;;;;21.89;53.42;101156.44;4957947;28;47518;-80
2022/06/07 10:04:22;;;;;;;;;2.00;0.00;;;;;22.05;52.73;101151.28;4981248;28;45384;-79
2022/06/07 10:06:56;;;;;;;;;0.00;0.00;;;;;22.17;52.05;101148.03;4964342;28;45371;-81
2022/06/07 10:09:39;;;;;;;;;1.00;1.00;;;;;22.28;51.72;101148.44;4950691;28;45498;-81
2022/06/07 10:12:30;;;;;;;;;0.00;0.00;;;;;22.33;51.58;101151.78;4961540;28;47517;-81
2022/06/07 10:15:11;;;;;;;;;2.00;2.00;;;;;22.35;51.21;101147.25;4987646;28;45372;-80
2022/06/07 10:17:46;;;;;;;;;1.00;1.00;;;;;22.40;50.41;101157.72;4989502;28;45380;-79
2022/06/07 10:20:23;;;;;;;;;2.67;0.00;;;;;22.35;50.12;101147.25;4971781;28;45418;-81
2022/06/07 10:23:33;;;;;;;;;0.00;0.00;;;;;22.36;49.90;101150.78;4969523;28;47108;-82
2022/06/07 10:26:35;;;;;;;;;0.33;0.33;;;;;22.35;50.09;101149.06;4979515;28;45454;-80
2022/06/07 10:29:18;;;;;;;;;0.67;0.67;;;;;22.40;49.39;101136.28;4974177;28;45291;-80
2022/06/07 10:31:51;;;;;;;;;0.67;0.67;;;;;22.57;49.42;101136.34;4965200;28;45395;-79
2022/06/07 10:34:40;;;;;;;;;1.00;1.00;;;;;22.73;49.29;101139.19;4954708;28;46806;-80
2022/06/07 10:37:40;;;;;;;;;1.33;1.33;;;;;22.90;48.96;101133.84;4981541;28;45330;-80
2022/06/07 10:40:28;;;;;;;;;0.00;0.00;;;;;23.08;48.39;101140.16;4973934;28;45477;-81
2022/06/07 10:43:06;;;;;;;;;1.67;1.00;;;;;23.11;48.06;101131.09;4977745;28;45515;-80
2022/06/07 10:45:40;;;;;;;;;0.00;0.00;;;;;23.10;47.50;101132.06;4976229;28;45461;-79
2022/06/07 10:48:28;;;;;;;;;1.00;1.00;;;;;23.03;47.81;101144.03;4980955;28;45441;-79
2022/06/07 10:51:06;;;;;;;;;1.00;1.00;;;;;22.99;47.32;101135.28;4975931;28;45259;-79
2022/06/07 10:53:46;;;;;;;;;1.00;1.00;;;;;22.98;47.53;101141.56;4979706;28;45641;-78
2022/06/07 10:56:24;;;;;;;;;0.00;0.00;;;;;22.97;47.25;101150.56;4959044;28;47374;-79
2022/06/07 10:58:53;;;;;;;;;1.00;1.00;;;;;22.93;47.28;101145.38;4979328;28;45298;-79
2022/06/07 11:01:40;;;;;;;;;0.67;0.00;;;;;22.80;47.27;101140.63;4968592;28;45263;-79
2022/06/07 11:10:23;;;;;;;;;0.00;0.00;;;;;22.81;47.67;101138.81;4924936;28;45587;-79
2022/06/07 11:13:42;;;;;;;;;0.00;0.00;;;;;23.05;46.83;101126.91;4980510;28;45501;-79
2022/06/07 11:16:40;;;;;;;;;0.00;0.00;;;;;23.37;46.54;101131.59;4967483;28;45188;-79
2022/06/07 11:19:08;;;;;;;;;1.33;1.00;;;;;23.62;46.19;101128.50;4952740;28;47612;-80
2022/06/07 11:21:37;;;;;;;;;0.00;0.00;;;;;23.73;45.66;101121.66;4981090;28;45283;-80
2022/06/07 11:24:04;;;;;;;;;1.00;1.00;;;;;23.82;45.30;101146.31;4980541;28;45607;-80
2022/06/07 11:26:58;;;;;;;;;0.67;0.67;;;;;23.73;45.05;101137.78;4981334;28;45275;-79
2022/06/07 11:29:33;;;;;;;;;1.00;1.00;;;;;23.52;45.20;101136.19;4961381;28;45437;-80
2022/06/07 11:32:02;;;;;;;;;0.33;0.33;;;;;23.44;45.46;101143.75;4964845;28;45353;-78
2022/06/07 11:34:31;;;;;;;;;1.00;0.00;;;;;23.53;45.77;101130.72;4962574;28;45532;-79
2022/06/07 11:37:09;;;;;;;;;0.00;0.00;;;;;23.62;45.91;101132.06;4967364;28;45263;-80
2022/06/07 11:39:40;;;;;;;;;0.67;0.67;;;;;23.64;46.16;101134.69;4962843;28;47595;-80
2022/06/07 11:42:27;;;;;;;;;;;;;;;;;;;;;
2022/06/07 11:45:11;;;;;;;;;0.00;0.00;;;;;23.57;45.46;101128.75;4960700;28;68742;-79
2022/06/07 11:47:46;;;;;;;;;1.00;0.00;;;;;23.68;44.17;101130.88;4972791;28;45358;-81
2022/06/07 11:50:39;;;;;;;;;0.00;0.00;;;;;23.87;44.05;101117.34;4963153;28;47913;-79
2022/06/07 11:53:20;;;;;;;;;0.00;0.00;;;;;23.91;44.46;101129.69;4962583;28;45456;-79
2022/06/07 11:55:53;;;;;;;;;1.00;0.00;;;;;23.80;44.23;101124.03;4949849;28;45553;-79
2022/06/07 11:58:59;;;;;;;;;0.00;0.00;;;;;23.74;44.46;101136.84;4962200;28;45429;-80
2022/06/07 12:01:38;;;;;;;;;0.00;0.00;;;;;23.70;44.22;101127.16;4968516;28;45468;-79
2022/06/07 12:04:29;;;;;;;;;0.00;0.00;;;;;23.81;43.46;101120.38;4959830;28;45645;-79
2022/06/07 12:07:07;;;;;;;;;0.00;0.00;;;;;23.96;43.03;101117.75;4973560;28;45567;-78
2022/06/07 12:09:35;;;;;;;;;0.00;0.00;;;;;24.17;43.15;101109.47;4951025;28;45707;-79
2022/06/07 12:12:24;;;;;;;;;0.00;0.00;;;;;24.29;43.40;101107.91;4959892;28;46818;-79
2022/06/07 12:14:53;;;;;;;;;1.00;1.00;;;;;24.41;43.32;101097.34;4974541;28;45665;-79
2022/06/07 12:17:25;;;;;;;;;0.00;0.00;;;;;24.55;42.45;101098.44;4960295;28;45554;-79
2022/06/07 12:19:54;;;;;;;;;0.00;0.00;;;;;24.65;42.38;101097.81;4957505;28;45533;-79
2022/06/07 12:22:23;;;;;;;;;1.00;1.00;;;;;24.72;42.68;101103.69;4964341;28;45713;-79
2022/06/07 12:25:10;;;;;;;;;0.00;0.00;;;;;24.72;42.59;101092.94;4959721;28;45486;-80
2022/06/07 12:27:51;;;;;;;;;0.33;0.00;;;;;24.69;41.32;101095.81;4951553;28;45535;-79